sensor_id;sensor_type;location;lat;lon;timestamp;P1;durP1;ratioP1;P2;durP2;ratioP2
18146;SDS011;9199;48.832;9.182;2023-11-25T00:01:23;6.68;;;1.38;;
18146;SDS011;9199;48.832;9.182;2023-11-25T00:03:50;7.78;;;1.42;;
18146;SDS011;9199;48.832;9.182;2023-11-25T00:06:16;4.75;;;1.40;;
18146;SDS011;9199;48.832;9.182;2023-11-25T00:08:45;6.25;;;1.08;;
18146;SDS011;9199;48.832;9.182;2023-11-25T00:11:12;4.70;;;1.30;;
18146;SDS011;9199;48.832;9.182;2023-11-25T00:13:39;5.03;;;1.50;;
18146;SDS011;9199;48.832;9.182;2023-11-25T00:16:08;4.72;;;1.23;;
18146;SDS011;9199;48.832;9.182;2023-11-25T00:18:35;7.95;;;1.42;;
18146;SDS011;9199;48.832;9.182;2023-11-25T00:21:02;7.10;;;1.10;;
18146;SDS011;9199;48.832;9.182;2023-11-25T00:23:29;5.57;;;1.20;;
18146;SDS011;9199;48.832;9.182;2023-11-25T00:25:55;5.13;;;1.30;;
18146;SDS011;9199;48.832;9.182;2023-11-25T00:28:22;4.95;;;1.00;;
18146;SDS011;9199;48.832;9.182;2023-11-25T00:30:49;5.43;;;1.10;;
18146;SDS011;9199;48.832;9.182;2023-11-25T00:33:17;4.13;;;0.80;;
18146;SDS011;9199;48.832;9.182;2023-11-25T00:35:43;5.73;;;1.30;;
18146;SDS011;9199;48.832;9.182;2023-11-25T00:38:10;5.97;;;0.93;;
18146;SDS011;9199;48.832;9.182;2023-11-25T00:40:37;7.30;;;1.48;;
18146;SDS011;9199;48.832;9.182;2023-11-25T00:43:04;4.63;;;0.98;;
18146;SDS011;9199;48.832;9.182;2023-11-25T00:45:32;6.70;;;1.20;;
18146;SDS011;9199;48.832;9.182;2023-11-25T00:47:58;4.80;;;0.90;;
18146;SDS011;9199;48.832;9.182;2023-11-25T00:50:26;7.07;;;1.20;;
18146;SDS011;9199;48.832;9.182;2023-11-25T00:52:53;6.47;;;0.90;;
18146;SDS011;9199;48.832;9.182;2023-11-25T00:55:20;3.30;;;0.77;;
18146;SDS011;9199;48.832;9.182;2023-11-25T00:57:47;7.88;;;1.10;;
18146;SDS011;9199;48.832;9.182;2023-11-25T01:00:14;5.37;;;1.00;;
18146;SDS011;9199;48.832;9.182;2023-11-25T01:02:41;5.97;;;1.00;;
18146;SDS011;9199;48.832;9.182;2023-11-25T01:05:09;4.68;;;1.00;;
18146;SDS011;9199;48.832;9.182;2023-11-25T01:07:37;4.28;;;1.08;;
18146;SDS011;9199;48.832;9.182;2023-11-25T01:10:04;3.42;;;0.93;;
18146;SDS011;9199;48.832;9.182;2023-11-25T01:12:31;5.33;;;0.97;;
18146;SDS011;9199;48.832;9.182;2023-11-25T01:15:00;4.88;;;1.00;;
18146;SDS011;9199;48.832;9.182;2023-11-25T01:17:28;4.53;;;1.00;;
18146;SDS011;9199;48.832;9.182;2023-11-25T01:19:55;4.72;;;1.00;;
18146;SDS011;9199;48.832;9.182;2023-11-25T01:22:23;3.38;;;0.80;;
18146;SDS011;9199;48.832;9.182;2023-11-25T01:24:52;6.07;;;0.90;;
18146;SDS011;9199;48.832;9.182;2023-11-25T01:27:18;4.38;;;0.88;;
18146;SDS011;9199;48.832;9.182;2023-11-25T01:29:46;3.28;;;0.70;;
18146;SDS011;9199;48.832;9.182;2023-11-25T01:32:13;5.65;;;0.93;;
18146;SDS011;9199;48.832;9.182;2023-11-25T01:34:39;4.57;;;1.10;;
18146;SDS011;9199;48.832;9.182;2023-11-25T01:37:06;4.10;;;1.00;;
18146;SDS011;9199;48.832;9.182;2023-11-25T01:39:33;3.40;;;0.73;;
18146;SDS011;9199;48.832;9.182;2023-11-25T01:42:01;4.13;;;0.80;;
18146;SDS011;9199;48.832;9.182;2023-11-25T01:44:28;5.80;;;0.90;;
18146;SDS011;9199;48.832;9.182;2023-11-25T01:46:55;4.15;;;0.88;;
18146;SDS011;9199;48.832;9.182;2023-11-25T01:49:22;3.28;;;0.70;;
18146;SDS011;9199;48.832;9.182;2023-11-25T01:51:50;2.63;;;0.80;;
18146;SDS011;9199;48.832;9.182;2023-11-25T01:54:17;5.47;;;0.82;;
18146;SDS011;9199;48.832;9.182;2023-11-25T01:56:46;4.47;;;1.35;;
18146;SDS011;9199;48.832;9.182;2023-11-25T01:59:17;3.13;;;0.82;;
18146;SDS011;9199;48.832;9.182;2023-11-25T02:01:47;5.37;;;0.97;;
18146;SDS011;9199;48.832;9.182;2023-11-25T02:04:15;4.45;;;1.00;;
18146;SDS011;9199;48.832;9.182;2023-11-25T02:06:42;5.70;;;0.98;;
18146;SDS011;9199;48.832;9.182;2023-11-25T02:09:08;4.97;;;1.10;;
18146;SDS011;9199;48.832;9.182;2023-11-25T02:14:20;3.37;;;1.10;;
18146;SDS011;9199;48.832;9.182;2023-11-25T02:16:47;2.72;;;1.15;;
18146;SDS011;9199;48.832;9.182;2023-11-25T02:19:13;5.70;;;1.20;;
18146;SDS011;9199;48.832;9.182;2023-11-25T02:21:40;5.97;;;1.20;;
18146;SDS011;9199;48.832;9.182;2023-11-25T02:24:09;4.75;;;1.10;;
18146;SDS011;9199;48.832;9.182;2023-11-25T02:26:37;11.20;;;1.20;;
18146;SDS011;9199;48.832;9.182;2023-11-25T02:29:04;4.88;;;1.13;;
18146;SDS011;9199;48.832;9.182;2023-11-25T02:31:31;5.10;;;1.08;;
18146;SDS011;9199;48.832;9.182;2023-11-25T02:33:58;6.10;;;1.17;;
18146;SDS011;9199;48.832;9.182;2023-11-25T02:36:25;3.70;;;1.17;;
18146;SDS011;9199;48.832;9.182;2023-11-25T02:38:52;6.23;;;1.60;;
18146;SDS011;9199;48.832;9.182;2023-11-25T02:41:21;5.97;;;1.05;;
18146;SDS011;9199;48.832;9.182;2023-11-25T02:43:48;6.05;;;1.17;;
18146;SDS011;9199;48.832;9.182;2023-11-25T02:46:16;4.60;;;1.13;;
18146;SDS011;9199;48.832;9.182;2023-11-25T02:48:43;5.45;;;1.00;;
18146;SDS011;9199;48.832;9.182;2023-11-25T02:51:10;4.90;;;1.10;;
18146;SDS011;9199;48.832;9.182;2023-11-25T02:53:37;5.53;;;1.23;;
18146;SDS011;9199;48.832;9.182;2023-11-25T02:56:03;4.68;;;1.20;;
18146;SDS011;9199;48.832;9.182;2023-11-25T02:58:32;6.93;;;1.30;;
18146;SDS011;9199;48.832;9.182;2023-11-25T03:01:00;5.88;;;1.30;;
18146;SDS011;9199;48.832;9.182;2023-11-25T03:03:32;8.97;;;1.67;;
18146;SDS011;9199;48.832;9.182;2023-11-25T03:06:06;8.80;;;1.20;;
18146;SDS011;9199;48.832;9.182;2023-11-25T03:08:34;7.93;;;1.40;;
18146;SDS011;9199;48.832;9.182;2023-11-25T03:11:01;7.28;;;1.30;;
18146;SDS011;9199;48.832;9.182;2023-11-25T03:13:38;6.45;;;1.42;;
18146;SDS011;9199;48.832;9.182;2023-11-25T03:16:05;6.15;;;1.65;;
18146;SDS011;9199;48.832;9.182;2023-11-25T03:18:32;6.70;;;1.40;;
18146;SDS011;9199;48.832;9.182;2023-11-25T03:20:59;4.05;;;1.10;;
18146;SDS011;9199;48.832;9.182;2023-11-25T03:23:25;4.95;;;1.40;;
18146;SDS011;9199;48.832;9.182;2023-11-25T03:25:52;6.47;;;1.58;;
18146;SDS011;9199;48.832;9.182;2023-11-25T03:28:20;7.57;;;1.73;;
18146;SDS011;9199;48.832;9.182;2023-11-25T03:30:48;6.13;;;1.30;;
18146;SDS011;9199;48.832;9.182;2023-11-25T03:33:15;4.88;;;1.40;;
18146;SDS011;9199;48.832;9.182;2023-11-25T03:35:42;5.60;;;1.58;;
18146;SDS011;9199;48.832;9.182;2023-11-25T03:38:09;8.63;;;1.70;;
18146;SDS011;9199;48.832;9.182;2023-11-25T03:40:35;3.92;;;1.30;;
18146;SDS011;9199;48.832;9.182;2023-11-25T03:43:02;7.82;;;1.60;;
18146;SDS011;9199;48.832;9.182;2023-11-25T03:45:29;7.20;;;1.40;;
18146;SDS011;9199;48.832;9.182;2023-11-25T03:47:57;5.50;;;1.52;;
18146;SDS011;9199;48.832;9.182;2023-11-25T03:50:24;8.05;;;1.70;;
18146;SDS011;9199;48.832;9.182;2023-11-25T03:52:52;7.60;;;1.73;;
18146;SDS011;9199;48.832;9.182;2023-11-25T03:55:19;8.20;;;1.77;;
18146;SDS011;9199;48.832;9.182;2023-11-25T03:57:46;5.25;;;1.40;;
18146;SDS011;9199;48.832;9.182;2023-11-25T04:00:13;6.07;;;1.60;;
18146;SDS011;9199;48.832;9.182;2023-11-25T04:02:41;6.57;;;1.73;;
18146;SDS011;9199;48.832;9.182;2023-11-25T04:05:10;8.80;;;1.73;;
18146;SDS011;9199;48.832;9.182;2023-11-25T04:07:37;8.13;;;1.63;;
18146;SDS011;9199;48.832;9.182;2023-11-25T04:10:04;5.57;;;1.48;;
18146;SDS011;9199;48.832;9.182;2023-11-25T04:12:38;7.80;;;1.58;;
18146;SDS011;9199;48.832;9.182;2023-11-25T04:15:06;5.50;;;1.60;;
18146;SDS011;9199;48.832;9.182;2023-11-25T04:17:33;5.03;;;1.43;;
18146;SDS011;9199;48.832;9.182;2023-11-25T04:20:00;7.95;;;1.50;;
18146;SDS011;9199;48.832;9.182;2023-11-25T04:22:29;4.60;;;1.33;;
18146;SDS011;9199;48.832;9.182;2023-11-25T04:24:56;8.93;;;1.40;;
18146;SDS011;9199;48.832;9.182;2023-11-25T04:27:23;5.50;;;1.35;;
18146;SDS011;9199;48.832;9.182;2023-11-25T04:29:51;7.30;;;1.40;;
18146;SDS011;9199;48.832;9.182;2023-11-25T04:32:18;6.60;;;1.30;;
18146;SDS011;9199;48.832;9.182;2023-11-25T04:34:45;7.82;;;1.63;;
18146;SDS011;9199;48.832;9.182;2023-11-25T04:37:13;6.30;;;1.40;;
18146;SDS011;9199;48.832;9.182;2023-11-25T04:39:41;5.65;;;1.20;;
18146;SDS011;9199;48.832;9.182;2023-11-25T04:42:08;6.43;;;1.60;;
18146;SDS011;9199;48.832;9.182;2023-11-25T04:44:34;5.70;;;1.55;;
18146;SDS011;9199;48.832;9.182;2023-11-25T04:47:01;5.22;;;1.25;;
18146;SDS011;9199;48.832;9.182;2023-11-25T04:49:28;7.90;;;1.65;;
18146;SDS011;9199;48.832;9.182;2023-11-25T04:51:55;4.05;;;1.13;;
18146;SDS011;9199;48.832;9.182;2023-11-25T04:54:22;4.45;;;1.40;;
18146;SDS011;9199;48.832;9.182;2023-11-25T04:56:50;9.10;;;1.20;;
18146;SDS011;9199;48.832;9.182;2023-11-25T04:59:17;8.73;;;1.30;;
18146;SDS011;9199;48.832;9.182;2023-11-25T05:01:44;6.32;;;1.38;;
18146;SDS011;9199;48.832;9.182;2023-11-25T05:04:11;5.32;;;1.20;;
18146;SDS011;9199;48.832;9.182;2023-11-25T05:06:38;4.90;;;1.10;;
18146;SDS011;9199;48.832;9.182;2023-11-25T05:09:06;6.65;;;1.20;;
18146;SDS011;9199;48.832;9.182;2023-11-25T05:11:32;7.40;;;1.13;;
18146;SDS011;9199;48.832;9.182;2023-11-25T05:14:00;5.13;;;1.08;;
18146;SDS011;9199;48.832;9.182;2023-11-25T05:16:27;5.38;;;1.40;;
18146;SDS011;9199;48.832;9.182;2023-11-25T05:18:54;6.83;;;1.53;;
18146;SDS011;9199;48.832;9.182;2023-11-25T05:21:21;5.30;;;1.00;;
18146;SDS011;9199;48.832;9.182;2023-11-25T05:23:48;5.90;;;1.17;;
18146;SDS011;9199;48.832;9.182;2023-11-25T05:26:15;8.13;;;1.20;;
18146;SDS011;9199;48.832;9.182;2023-11-25T05:28:42;6.05;;;1.33;;
18146;SDS011;9199;48.832;9.182;2023-11-25T05:31:10;5.87;;;1.27;;
18146;SDS011;9199;48.832;9.182;2023-11-25T05:33:37;7.82;;;1.13;;
18146;SDS011;9199;48.832;9.182;2023-11-25T05:36:04;6.03;;;1.33;;
18146;SDS011;9199;48.832;9.182;2023-11-25T05:38:32;5.47;;;1.27;;
18146;SDS011;9199;48.832;9.182;2023-11-25T05:40:59;8.02;;;1.30;;
18146;SDS011;9199;48.832;9.182;2023-11-25T05:43:27;7.47;;;1.33;;
18146;SDS011;9199;48.832;9.182;2023-11-25T05:45:54;6.00;;;1.33;;
18146;SDS011;9199;48.832;9.182;2023-11-25T05:48:24;6.57;;;1.38;;
18146;SDS011;9199;48.832;9.182;2023-11-25T05:50:52;8.75;;;1.20;;
18146;SDS011;9199;48.832;9.182;2023-11-25T05:53:19;5.90;;;1.30;;
18146;SDS011;9199;48.832;9.182;2023-11-25T05:55:45;5.97;;;1.30;;
18146;SDS011;9199;48.832;9.182;2023-11-25T05:58:12;9.23;;;1.73;;
18146;SDS011;9199;48.832;9.182;2023-11-25T06:00:39;6.60;;;1.60;;
18146;SDS011;9199;48.832;9.182;2023-11-25T06:03:07;6.03;;;1.30;;
18146;SDS011;9199;48.832;9.182;2023-11-25T06:05:35;7.50;;;1.38;;
18146;SDS011;9199;48.832;9.182;2023-11-25T06:08:01;6.15;;;1.23;;
18146;SDS011;9199;48.832;9.182;2023-11-25T06:10:28;4.63;;;1.33;;
18146;SDS011;9199;48.832;9.182;2023-11-25T06:12:55;7.93;;;1.38;;
18146;SDS011;9199;48.832;9.182;2023-11-25T06:15:22;6.28;;;1.50;;
18146;SDS011;9199;48.832;9.182;2023-11-25T06:17:48;6.68;;;1.08;;
18146;SDS011;9199;48.832;9.182;2023-11-25T06:20:15;4.33;;;1.53;;
18146;SDS011;9199;48.832;9.182;2023-11-25T06:22:43;6.63;;;1.30;;
18146;SDS011;9199;48.832;9.182;2023-11-25T06:25:10;5.57;;;1.00;;
18146;SDS011;9199;48.832;9.182;2023-11-25T06:27:37;4.57;;;1.30;;
18146;SDS011;9199;48.832;9.182;2023-11-25T06:30:04;5.15;;;1.20;;
18146;SDS011;9199;48.832;9.182;2023-11-25T06:32:31;4.47;;;1.05;;
18146;SDS011;9199;48.832;9.182;2023-11-25T06:34:58;4.97;;;1.00;;
18146;SDS011;9199;48.832;9.182;2023-11-25T06:37:25;5.72;;;1.20;;
18146;SDS011;9199;48.832;9.182;2023-11-25T06:39:54;4.53;;;1.00;;
18146;SDS011;9199;48.832;9.182;2023-11-25T06:42:21;5.18;;;1.17;;
18146;SDS011;9199;48.832;9.182;2023-11-25T06:44:48;6.23;;;1.67;;
18146;SDS011;9199;48.832;9.182;2023-11-25T06:47:16;5.82;;;1.02;;
18146;SDS011;9199;48.832;9.182;2023-11-25T06:49:44;6.22;;;1.30;;
18146;SDS011;9199;48.832;9.182;2023-11-25T06:52:13;6.22;;;1.17;;
18146;SDS011;9199;48.832;9.182;2023-11-25T06:54:39;3.58;;;0.90;;
18146;SDS011;9199;48.832;9.182;2023-11-25T06:57:08;6.43;;;1.40;;
18146;SDS011;9199;48.832;9.182;2023-11-25T06:59:34;4.28;;;1.10;;
18146;SDS011;9199;48.832;9.182;2023-11-25T07:02:01;6.30;;;0.98;;
18146;SDS011;9199;48.832;9.182;2023-11-25T07:04:29;6.18;;;1.08;;
18146;SDS011;9199;48.832;9.182;2023-11-25T07:06:55;5.35;;;0.90;;
18146;SDS011;9199;48.832;9.182;2023-11-25T07:09:22;7.50;;;1.75;;
18146;SDS011;9199;48.832;9.182;2023-11-25T07:11:49;5.50;;;1.13;;
18146;SDS011;9199;48.832;9.182;2023-11-25T07:14:17;5.97;;;1.05;;
18146;SDS011;9199;48.832;9.182;2023-11-25T07:16:44;6.35;;;1.27;;
18146;SDS011;9199;48.832;9.182;2023-11-25T07:19:11;5.22;;;1.27;;
18146;SDS011;9199;48.832;9.182;2023-11-25T07:21:37;5.87;;;1.30;;
18146;SDS011;9199;48.832;9.182;2023-11-25T07:24:04;6.82;;;1.30;;
18146;SDS011;9199;48.832;9.182;2023-11-25T07:26:32;6.13;;;1.10;;
18146;SDS011;9199;48.832;9.182;2023-11-25T07:29:05;6.55;;;1.27;;
18146;SDS011;9199;48.832;9.182;2023-11-25T07:31:35;5.40;;;1.02;;
18146;SDS011;9199;48.832;9.182;2023-11-25T07:34:02;5.72;;;1.20;;
18146;SDS011;9199;48.832;9.182;2023-11-25T07:36:29;5.30;;;1.30;;
18146;SDS011;9199;48.832;9.182;2023-11-25T07:38:57;6.07;;;1.30;;
18146;SDS011;9199;48.832;9.182;2023-11-25T07:41:24;3.63;;;1.00;;
18146;SDS011;9199;48.832;9.182;2023-11-25T07:43:51;4.88;;;1.15;;
18146;SDS011;9199;48.832;9.182;2023-11-25T07:46:18;7.80;;;1.70;;
18146;SDS011;9199;48.832;9.182;2023-11-25T07:48:46;5.97;;;1.30;;
18146;SDS011;9199;48.832;9.182;2023-11-25T07:51:12;9.40;;;1.33;;
18146;SDS011;9199;48.832;9.182;2023-11-25T07:53:39;5.05;;;1.30;;
18146;SDS011;9199;48.832;9.182;2023-11-25T07:56:06;4.78;;;1.20;;
18146;SDS011;9199;48.832;9.182;2023-11-25T07:58:33;4.40;;;0.93;;
18146;SDS011;9199;48.832;9.182;2023-11-25T08:01:00;8.50;;;1.40;;
18146;SDS011;9199;48.832;9.182;2023-11-25T08:03:27;7.05;;;1.17;;
18146;SDS011;9199;48.832;9.182;2023-11-25T08:05:55;6.38;;;1.40;;
18146;SDS011;9199;48.832;9.182;2023-11-25T08:08:21;7.85;;;1.55;;
18146;SDS011;9199;48.832;9.182;2023-11-25T08:10:49;7.83;;;1.30;;
18146;SDS011;9199;48.832;9.182;2023-11-25T08:13:17;5.55;;;1.02;;
18146;SDS011;9199;48.832;9.182;2023-11-25T08:15:44;6.30;;;1.10;;
18146;SDS011;9199;48.832;9.182;2023-11-25T08:18:11;6.25;;;1.38;;
18146;SDS011;9199;48.832;9.182;2023-11-25T08:20:40;4.60;;;1.13;;
18146;SDS011;9199;48.832;9.182;2023-11-25T08:23:08;5.87;;;1.10;;
18146;SDS011;9199;48.832;9.182;2023-11-25T08:25:35;7.95;;;1.40;;
18146;SDS011;9199;48.832;9.182;2023-11-25T08:28:02;6.18;;;1.40;;
18146;SDS011;9199;48.832;9.182;2023-11-25T08:30:29;7.53;;;1.40;;
18146;SDS011;9199;48.832;9.182;2023-11-25T08:32:56;7.35;;;1.50;;
18146;SDS011;9199;48.832;9.182;2023-11-25T08:35:24;5.67;;;1.40;;
18146;SDS011;9199;48.832;9.182;2023-11-25T08:37:51;5.18;;;1.08;;
18146;SDS011;9199;48.832;9.182;2023-11-25T08:40:19;7.28;;;1.25;;
18146;SDS011;9199;48.832;9.182;2023-11-25T08:42:46;5.07;;;1.00;;
18146;SDS011;9199;48.832;9.182;2023-11-25T08:45:14;4.07;;;1.00;;
18146;SDS011;9199;48.832;9.182;2023-11-25T08:47:41;8.13;;;1.00;;
18146;SDS011;9199;48.832;9.182;2023-11-25T08:50:09;4.72;;;1.25;;
18146;SDS011;9199;48.832;9.182;2023-11-25T08:52:40;9.07;;;1.17;;
18146;SDS011;9199;48.832;9.182;2023-11-25T08:55:07;5.75;;;0.90;;
18146;SDS011;9199;48.832;9.182;2023-11-25T08:57:36;6.25;;;0.80;;
18146;SDS011;9199;48.832;9.182;2023-11-25T09:00:03;7.27;;;1.00;;
18146;SDS011;9199;48.832;9.182;2023-11-25T09:02:39;3.90;;;0.95;;
18146;SDS011;9199;48.832;9.182;2023-11-25T09:05:06;4.13;;;0.75;;
18146;SDS011;9199;48.832;9.182;2023-11-25T09:07:33;6.47;;;1.10;;
18146;SDS011;9199;48.832;9.182;2023-11-25T09:10:00;6.18;;;1.17;;
18146;SDS011;9199;48.832;9.182;2023-11-25T09:12:30;7.13;;;1.30;;
18146;SDS011;9199;48.832;9.182;2023-11-25T09:14:58;11.02;;;1.38;;
18146;SDS011;9199;48.832;9.182;2023-11-25T09:17:25;7.75;;;1.40;;
18146;SDS011;9199;48.832;9.182;2023-11-25T09:19:51;7.07;;;1.27;;
18146;SDS011;9199;48.832;9.182;2023-11-25T09:22:18;4.70;;;0.93;;
18146;SDS011;9199;48.832;9.182;2023-11-25T09:24:45;8.80;;;1.50;;
18146;SDS011;9199;48.832;9.182;2023-11-25T09:27:12;5.80;;;1.30;;
18146;SDS011;9199;48.832;9.182;2023-11-25T09:29:39;7.07;;;1.25;;
18146;SDS011;9199;48.832;9.182;2023-11-25T09:32:09;7.10;;;1.38;;
18146;SDS011;9199;48.832;9.182;2023-11-25T09:34:36;8.23;;;1.42;;
18146;SDS011;9199;48.832;9.182;2023-11-25T09:37:03;8.73;;;1.53;;
18146;SDS011;9199;48.832;9.182;2023-11-25T09:39:32;8.50;;;1.48;;
18146;SDS011;9199;48.832;9.182;2023-11-25T09:42:00;9.15;;;1.33;;
18146;SDS011;9199;48.832;9.182;2023-11-25T09:44:26;8.20;;;1.00;;
18146;SDS011;9199;48.832;9.182;2023-11-25T09:46:55;10.50;;;1.70;;
18146;SDS011;9199;48.832;9.182;2023-11-25T09:49:23;9.03;;;1.37;;
18146;SDS011;9199;48.832;9.182;2023-11-25T09:51:51;9.57;;;1.50;;
18146;SDS011;9199;48.832;9.182;2023-11-25T09:54:20;7.38;;;1.42;;
18146;SDS011;9199;48.832;9.182;2023-11-25T09:56:48;8.68;;;1.92;;
18146;SDS011;9199;48.832;9.182;2023-11-25T09:59:16;9.43;;;1.80;;
18146;SDS011;9199;48.832;9.182;2023-11-25T10:01:44;11.27;;;2.00;;
18146;SDS011;9199;48.832;9.182;2023-11-25T10:04:11;10.35;;;1.67;;
18146;SDS011;9199;48.832;9.182;2023-11-25T10:06:41;10.50;;;1.65;;
18146;SDS011;9199;48.832;9.182;2023-11-25T10:09:10;10.68;;;1.80;;
18146;SDS011;9199;48.832;9.182;2023-11-25T10:11:37;8.43;;;1.48;;
18146;SDS011;9199;48.832;9.182;2023-11-25T10:14:08;9.87;;;1.60;;
18146;SDS011;9199;48.832;9.182;2023-11-25T10:16:38;8.18;;;1.48;;
18146;SDS011;9199;48.832;9.182;2023-11-25T10:19:16;7.60;;;1.65;;
18146;SDS011;9199;48.832;9.182;2023-11-25T10:21:45;10.23;;;1.50;;
18146;SDS011;9199;48.832;9.182;2023-11-25T10:24:12;8.85;;;1.55;;
18146;SDS011;9199;48.832;9.182;2023-11-25T10:26:39;7.20;;;1.53;;
18146;SDS011;9199;48.832;9.182;2023-11-25T10:29:06;8.85;;;1.42;;
18146;SDS011;9199;48.832;9.182;2023-11-25T10:31:34;6.70;;;1.38;;
18146;SDS011;9199;48.832;9.182;2023-11-25T10:34:01;13.13;;;1.85;;
18146;SDS011;9199;48.832;9.182;2023-11-25T10:36:28;10.23;;;1.70;;
18146;SDS011;9199;48.832;9.182;2023-11-25T10:38:56;7.33;;;1.50;;
18146;SDS011;9199;48.832;9.182;2023-11-25T10:41:28;9.82;;;1.48;;
18146;SDS011;9199;48.832;9.182;2023-11-25T10:43:56;11.35;;;1.50;;
18146;SDS011;9199;48.832;9.182;2023-11-25T10:46:23;10.15;;;2.03;;
18146;SDS011;9199;48.832;9.182;2023-11-25T10:49:03;9.13;;;1.95;;
18146;SDS011;9199;48.832;9.182;2023-11-25T10:51:32;9.87;;;1.50;;
18146;SDS011;9199;48.832;9.182;2023-11-25T10:54:00;10.05;;;2.20;;
18146;SDS011;9199;48.832;9.182;2023-11-25T10:56:28;7.80;;;1.42;;
18146;SDS011;9199;48.832;9.182;2023-11-25T10:58:57;9.15;;;1.92;;
18146;SDS011;9199;48.832;9.182;2023-11-25T11:01:25;10.23;;;1.92;;
18146;SDS011;9199;48.832;9.182;2023-11-25T11:03:56;9.53;;;2.20;;
18146;SDS011;9199;48.832;9.182;2023-11-25T11:06:27;8.60;;;2.00;;
18146;SDS011;9199;48.832;9.182;2023-11-25T11:08:55;10.63;;;1.77;;
18146;SDS011;9199;48.832;9.182;2023-11-25T11:11:27;7.47;;;1.38;;
18146;SDS011;9199;48.832;9.182;2023-11-25T11:14:00;9.95;;;1.95;;
18146;SDS011;9199;48.832;9.182;2023-11-25T11:16:34;8.00;;;1.57;;
18146;SDS011;9199;48.832;9.182;2023-11-25T11:19:08;10.82;;;1.60;;
18146;SDS011;9199;48.832;9.182;2023-11-25T11:21:36;7.88;;;2.00;;
18146;SDS011;9199;48.832;9.182;2023-11-25T11:24:04;8.90;;;1.55;;
18146;SDS011;9199;48.832;9.182;2023-11-25T11:26:35;10.18;;;1.65;;
18146;SDS011;9199;48.832;9.182;2023-11-25T11:29:11;7.77;;;1.80;;
18146;SDS011;9199;48.832;9.182;2023-11-25T11:31:54;11.27;;;1.60;;
18146;SDS011;9199;48.832;9.182;2023-11-25T11:34:26;7.93;;;1.52;;
18146;SDS011;9199;48.832;9.182;2023-11-25T11:36:54;10.77;;;1.63;;
18146;SDS011;9199;48.832;9.182;2023-11-25T11:39:30;7.18;;;1.98;;
18146;SDS011;9199;48.832;9.182;2023-11-25T11:44:54;10.38;;;1.73;;
18146;SDS011;9199;48.832;9.182;2023-11-25T11:47:22;12.30;;;1.80;;
18146;SDS011;9199;48.832;9.182;2023-11-25T11:49:50;9.77;;;1.52;;
18146;SDS011;9199;48.832;9.182;2023-11-25T11:52:17;8.57;;;1.45;;
18146;SDS011;9199;48.832;9.182;2023-11-25T11:54:44;7.10;;;1.70;;
18146;SDS011;9199;48.832;9.182;2023-11-25T11:57:11;7.60;;;1.20;;
18146;SDS011;9199;48.832;9.182;2023-11-25T11:59:59;5.70;;;1.33;;
18146;SDS011;9199;48.832;9.182;2023-11-25T12:02:36;6.45;;;1.35;;
18146;SDS011;9199;48.832;9.182;2023-11-25T12:05:07;8.25;;;1.65;;
18146;SDS011;9199;48.832;9.182;2023-11-25T12:07:35;7.13;;;1.70;;
18146;SDS011;9199;48.832;9.182;2023-11-25T12:10:03;8.07;;;1.40;;
18146;SDS011;9199;48.832;9.182;2023-11-25T12:12:30;6.28;;;1.85;;
18146;SDS011;9199;48.832;9.182;2023-11-25T12:15:00;7.65;;;1.80;;
18146;SDS011;9199;48.832;9.182;2023-11-25T12:17:29;11.30;;;1.92;;
18146;SDS011;9199;48.832;9.182;2023-11-25T12:19:56;6.90;;;1.70;;
18146;SDS011;9199;48.832;9.182;2023-11-25T12:22:24;5.95;;;1.50;;
18146;SDS011;9199;48.832;9.182;2023-11-25T12:24:51;5.50;;;1.45;;
18146;SDS011;9199;48.832;9.182;2023-11-25T12:27:17;10.38;;;1.50;;
18146;SDS011;9199;48.832;9.182;2023-11-25T12:29:47;5.82;;;1.35;;
18146;SDS011;9199;48.832;9.182;2023-11-25T12:32:15;6.13;;;1.37;;
18146;SDS011;9199;48.832;9.182;2023-11-25T12:34:42;6.60;;;1.42;;
18146;SDS011;9199;48.832;9.182;2023-11-25T12:37:10;8.25;;;1.20;;
18146;SDS011;9199;48.832;9.182;2023-11-25T12:39:38;8.60;;;1.40;;
18146;SDS011;9199;48.832;9.182;2023-11-25T12:42:05;6.65;;;1.33;;
18146;SDS011;9199;48.832;9.182;2023-11-25T12:44:46;6.60;;;1.40;;
18146;SDS011;9199;48.832;9.182;2023-11-25T12:47:13;7.15;;;1.48;;
18146;SDS011;9199;48.832;9.182;2023-11-25T12:49:42;8.75;;;1.50;;
18146;SDS011;9199;48.832;9.182;2023-11-25T12:52:17;5.97;;;1.27;;
18146;SDS011;9199;48.832;9.182;2023-11-25T12:54:44;4.72;;;1.25;;
18146;SDS011;9199;48.832;9.182;2023-11-25T12:57:11;7.80;;;1.40;;
18146;SDS011;9199;48.832;9.182;2023-11-25T12:59:39;4.97;;;1.30;;
18146;SDS011;9199;48.832;9.182;2023-11-25T13:02:07;7.60;;;1.60;;
18146;SDS011;9199;48.832;9.182;2023-11-25T13:04:35;6.22;;;1.20;;
18146;SDS011;9199;48.832;9.182;2023-11-25T13:07:09;5.72;;;1.10;;
18146;SDS011;9199;48.832;9.182;2023-11-25T13:09:37;9.07;;;1.63;;
18146;SDS011;9199;48.832;9.182;2023-11-25T13:12:05;5.63;;;1.70;;
18146;SDS011;9199;48.832;9.182;2023-11-25T13:14:33;7.10;;;1.45;;
18146;SDS011;9199;48.832;9.182;2023-11-25T13:17:00;7.47;;;1.55;;
18146;SDS011;9199;48.832;9.182;2023-11-25T13:19:29;5.32;;;1.25;;
18146;SDS011;9199;48.832;9.182;2023-11-25T13:21:57;7.07;;;1.20;;
18146;SDS011;9199;48.832;9.182;2023-11-25T13:24:25;8.23;;;1.42;;
18146;SDS011;9199;48.832;9.182;2023-11-25T13:26:51;7.40;;;1.25;;
18146;SDS011;9199;48.832;9.182;2023-11-25T13:29:18;7.97;;;1.33;;
18146;SDS011;9199;48.832;9.182;2023-11-25T13:31:45;8.75;;;1.42;;
18146;SDS011;9199;48.832;9.182;2023-11-25T13:34:12;10.57;;;1.60;;
18146;SDS011;9199;48.832;9.182;2023-11-25T13:36:39;6.82;;;1.15;;
18146;SDS011;9199;48.832;9.182;2023-11-25T13:39:07;7.93;;;1.42;;
18146;SDS011;9199;48.832;9.182;2023-11-25T13:41:40;6.78;;;1.60;;
18146;SDS011;9199;48.832;9.182;2023-11-25T13:44:09;6.80;;;1.60;;
18146;SDS011;9199;48.832;9.182;2023-11-25T13:46:36;6.47;;;1.53;;
18146;SDS011;9199;48.832;9.182;2023-11-25T13:49:03;4.47;;;1.23;;
18146;SDS011;9199;48.832;9.182;2023-11-25T13:51:29;5.70;;;1.50;;
18146;SDS011;9199;48.832;9.182;2023-11-25T13:53:56;8.27;;;1.67;;
18146;SDS011;9199;48.832;9.182;2023-11-25T13:56:23;5.05;;;1.40;;
18146;SDS011;9199;48.832;9.182;2023-11-25T13:58:51;5.80;;;1.40;;
18146;SDS011;9199;48.832;9.182;2023-11-25T14:01:18;4.43;;;1.40;;
18146;SDS011;9199;48.832;9.182;2023-11-25T14:03:46;5.72;;;1.63;;
18146;SDS011;9199;48.832;9.182;2023-11-25T14:06:13;7.93;;;1.80;;
18146;SDS011;9199;48.832;9.182;2023-11-25T14:08:39;5.70;;;1.52;;
18146;SDS011;9199;48.832;9.182;2023-11-25T14:11:06;7.83;;;1.83;;
18146;SDS011;9199;48.832;9.182;2023-11-25T14:13:34;5.00;;;1.60;;
18146;SDS011;9199;48.832;9.182;2023-11-25T14:16:02;6.20;;;1.67;;
18146;SDS011;9199;48.832;9.182;2023-11-25T14:18:29;7.20;;;1.90;;
18146;SDS011;9199;48.832;9.182;2023-11-25T14:20:56;9.32;;;2.28;;
18146;SDS011;9199;48.832;9.182;2023-11-25T14:23:23;10.67;;;3.17;;
18146;SDS011;9199;48.832;9.182;2023-11-25T14:25:50;6.63;;;2.10;;
18146;SDS011;9199;48.832;9.182;2023-11-25T14:28:16;7.97;;;2.22;;
18146;SDS011;9199;48.832;9.182;2023-11-25T14:30:43;7.05;;;1.77;;
18146;SDS011;9199;48.832;9.182;2023-11-25T14:33:12;9.57;;;2.38;;
18146;SDS011;9199;48.832;9.182;2023-11-25T14:35:39;7.10;;;2.27;;
18146;SDS011;9199;48.832;9.182;2023-11-25T14:38:06;6.50;;;1.80;;
18146;SDS011;9199;48.832;9.182;2023-11-25T14:40:33;11.52;;;2.13;;
18146;SDS011;9199;48.832;9.182;2023-11-25T14:43:03;5.50;;;1.75;;
18146;SDS011;9199;48.832;9.182;2023-11-25T14:45:31;7.40;;;1.98;;
18146;SDS011;9199;48.832;9.182;2023-11-25T14:47:58;5.47;;;1.80;;
18146;SDS011;9199;48.832;9.182;2023-11-25T14:50:26;5.05;;;1.45;;
18146;SDS011;9199;48.832;9.182;2023-11-25T14:52:53;7.55;;;2.00;;
18146;SDS011;9199;48.832;9.182;2023-11-25T14:55:21;6.95;;;1.70;;
18146;SDS011;9199;48.832;9.182;2023-11-25T14:57:50;5.45;;;1.77;;
18146;SDS011;9199;48.832;9.182;2023-11-25T15:00:17;7.13;;;1.57;;
18146;SDS011;9199;48.832;9.182;2023-11-25T15:02:44;5.57;;;1.58;;
18146;SDS011;9199;48.832;9.182;2023-11-25T15:05:11;5.63;;;1.65;;
18146;SDS011;9199;48.832;9.182;2023-11-25T15:07:39;8.43;;;1.55;;
18146;SDS011;9199;48.832;9.182;2023-11-25T15:10:06;4.50;;;1.42;;